createdAt,value
2019-02-16T00:02:17.324Z,3.83
2019-02-16T00:04:43.709Z,3.60
2019-02-16T00:07:09.962Z,3.50
2019-02-16T00:09:36.256Z,3.93
2019-02-16T00:12:02.966Z,5.17
2019-02-16T00:14:29.443Z,4.50
2019-02-16T00:16:57.755Z,4.10
2019-02-16T00:19:24.255Z,5.37
2019-02-16T00:21:50.749Z,4.60
2019-02-16T00:24:17.223Z,5.47
2019-02-16T00:26:43.691Z,5.73
2019-02-16T00:29:10.100Z,4.03
2019-02-16T00:31:36.617Z,5.37
2019-02-16T00:34:03.142Z,4.87
2019-02-16T00:36:29.574Z,5.00
2019-02-16T00:38:55.940Z,5.60
2019-02-16T00:41:22.438Z,5.07
2019-02-16T00:43:48.834Z,6.17
2019-02-16T00:46:15.489Z,5.53
2019-02-16T00:48:41.808Z,6.47
2019-02-16T00:51:13.458Z,7.17
2019-02-16T00:53:36.449Z,6.03
2019-02-16T00:56:03.035Z,6.67
2019-02-16T00:58:29.573Z,6.93
2019-02-16T01:00:56.160Z,7.17
2019-02-16T01:03:22.708Z,7.90
2019-02-16T01:05:49.301Z,8.33
2019-02-16T01:08:15.766Z,8.47
2019-02-16T01:10:43.082Z,6.67
2019-02-16T01:13:09.575Z,7.57
2019-02-16T01:15:36.073Z,7.47
2019-02-16T01:18:02.712Z,7.53
2019-02-16T01:20:29.285Z,7.83
2019-02-16T01:22:55.792Z,7.07
2019-02-16T01:25:22.281Z,7.30
2019-02-16T01:27:49.533Z,8.57
2019-02-16T01:30:16.114Z,7.83
2019-02-16T01:32:42.504Z,7.27
2019-02-16T01:35:08.908Z,7.60
2019-02-16T01:37:35.499Z,7.30
2019-02-16T01:40:02.232Z,7.80
2019-02-16T01:42:28.720Z,7.17
2019-02-16T01:44:55.319Z,7.23
2019-02-16T01:47:21.698Z,7.53
2019-02-16T01:49:48.190Z,7.23
2019-02-16T01:52:14.750Z,7.73
2019-02-16T01:54:41.219Z,8.53
2019-02-16T01:57:07.626Z,6.87
2019-02-16T01:59:34.090Z,8.00
2019-02-16T02:02:00.611Z,7.93
2019-02-16T02:04:26.883Z,8.07
2019-02-16T02:06:53.720Z,7.67
2019-02-16T02:09:20.174Z,8.20
2019-02-16T02:11:46.650Z,7.30
2019-02-16T02:14:13.041Z,7.63
2019-02-16T02:16:39.667Z,7.67
2019-02-16T02:19:06.046Z,7.37
2019-02-16T02:21:40.660Z,6.83
2019-02-16T02:24:00.754Z,8.73
2019-02-16T02:26:27.307Z,7.97
2019-02-16T02:28:53.864Z,7.87
2019-02-16T02:31:20.134Z,8.70
2019-02-16T02:33:46.751Z,8.07
2019-02-16T02:36:13.326Z,8.40
2019-02-16T02:38:39.609Z,7.37
2019-02-16T02:41:06.206Z,8.47
2019-02-16T02:43:32.707Z,8.07
2019-02-16T02:45:59.074Z,8.70
2019-02-16T02:48:25.472Z,9.20
2019-02-16T02:50:51.953Z,8.57
2019-02-16T02:53:18.563Z,8.27
2019-02-16T02:55:44.949Z,8.57
2019-02-16T02:58:11.313Z,9.33
2019-02-16T03:00:38.107Z,8.80
2019-02-16T03:03:04.602Z,8.73
2019-02-16T03:05:31.175Z,8.67
2019-02-16T03:07:57.673Z,9.47
2019-02-16T03:10:24.268Z,9.67
2019-02-16T03:12:50.774Z,7.97
2019-02-16T03:15:17.256Z,8.57
2019-02-16T03:17:43.626Z,8.97
2019-02-16T03:20:10.118Z,8.90
2019-02-16T03:23:11.096Z,9.50
2019-02-16T03:25:37.457Z,8.83
2019-02-16T03:28:24.163Z,8.43
2019-02-16T03:31:27.420Z,8.97
2019-02-16T03:34:09.527Z,8.10
2019-02-16T03:36:56.180Z,8.80
2019-02-16T03:39:22.451Z,9.30
2019-02-16T03:41:48.942Z,9.73
2019-02-16T03:44:15.442Z,9.37
2019-02-16T03:46:42.034Z,8.53
2019-02-16T03:49:08.616Z,7.80
2019-02-16T03:51:35.156Z,7.53
2019-02-16T03:54:01.613Z,10.73
2019-02-16T03:56:28.238Z,8.27
2019-02-16T03:58:54.761Z,8.93
2019-02-16T04:01:21.199Z,8.90
2019-02-16T04:03:47.693Z,9.30
2019-02-16T04:06:14.227Z,8.83
2019-02-16T04:08:40.612Z,8.90
2019-02-16T04:11:06.911Z,7.87
2019-02-16T04:13:33.360Z,7.67
2019-02-16T04:16:00.191Z,8.23
2019-02-16T04:18:26.617Z,8.43
2019-02-16T04:20:53.161Z,8.07
2019-02-16T04:23:19.633Z,8.63
2019-02-16T04:25:46.199Z,8.60
2019-02-16T04:28:12.596Z,7.70
2019-02-16T04:30:39.246Z,7.83
2019-02-16T04:33:05.890Z,8.13
2019-02-16T04:35:32.485Z,7.73
2019-02-16T04:37:58.887Z,8.47
2019-02-16T04:40:25.474Z,8.67
2019-02-16T04:42:51.955Z,8.47
2019-02-16T04:45:18.240Z,8.83
2019-02-16T04:47:45.585Z,8.60
2019-02-16T04:50:11.996Z,8.23
2019-02-16T04:52:38.412Z,9.10
2019-02-16T04:55:06.222Z,8.33
2019-02-16T04:57:32.726Z,8.47
2019-02-16T04:59:59.174Z,9.03
2019-02-16T05:02:25.648Z,8.60
2019-02-16T05:04:52.043Z,7.80
2019-02-16T05:07:18.431Z,8.63
2019-02-16T05:09:44.810Z,7.00
2019-02-16T05:12:11.087Z,8.50
2019-02-16T05:14:37.482Z,8.20
2019-02-16T05:17:04.120Z,7.77
2019-02-16T05:19:30.390Z,7.47
2019-02-16T05:21:56.784Z,7.50
2019-02-16T05:24:23.257Z,8.37
2019-02-16T05:26:49.841Z,8.17
2019-02-16T05:29:16.257Z,7.33
2019-02-16T05:31:42.813Z,6.83
2019-02-16T05:34:09.244Z,7.77
2019-02-16T05:36:35.631Z,9.20
2019-02-16T05:39:03.491Z,8.30
2019-02-16T05:41:29.903Z,8.00
2019-02-16T05:43:56.209Z,8.57
2019-02-16T05:46:24.641Z,7.70
2019-02-16T05:48:50.818Z,8.07
2019-02-16T05:51:17.280Z,8.17
2019-02-16T05:53:43.718Z,7.97
2019-02-16T05:56:10.299Z,7.80
2019-02-16T05:58:36.680Z,7.57
2019-02-16T06:01:03.403Z,8.00
2019-02-16T06:03:30.008Z,8.67
2019-02-16T06:05:56.477Z,8.27
2019-02-16T06:08:23.068Z,7.17
2019-02-16T06:10:49.617Z,6.87
2019-02-16T06:13:16.000Z,7.43
2019-02-16T06:15:42.394Z,6.90
2019-02-16T06:18:08.919Z,7.93
2019-02-16T06:20:35.291Z,7.60
2019-02-16T06:23:04.478Z,8.60
2019-02-16T06:25:30.243Z,7.97
2019-02-16T06:27:56.681Z,8.40
2019-02-16T06:30:23.169Z,7.90
2019-02-16T06:32:49.570Z,7.73
2019-02-16T06:35:17.849Z,7.90
2019-02-16T06:37:44.371Z,8.20
2019-02-16T06:40:10.817Z,7.87
2019-02-16T06:42:38.169Z,7.63
2019-02-16T06:45:05.002Z,8.10
2019-02-16T06:47:31.464Z,7.00
2019-02-16T06:49:58.095Z,7.90
2019-02-16T06:52:24.373Z,8.67
2019-02-16T06:54:50.991Z,8.53
2019-02-16T06:57:25.573Z,8.17
2019-02-16T06:59:52.081Z,6.93
2019-02-16T07:02:19.334Z,8.23
2019-02-16T07:04:48.727Z,8.17
2019-02-16T07:07:15.235Z,7.33
2019-02-16T07:09:42.079Z,8.50
2019-02-16T07:12:08.597Z,7.00
2019-02-16T07:14:35.157Z,7.10
2019-02-16T07:17:12.429Z,8.67
2019-02-16T07:19:40.861Z,8.10
2019-02-16T07:22:07.259Z,7.80
2019-02-16T07:24:33.542Z,6.90
2019-02-16T07:27:02.057Z,8.10
2019-02-16T07:29:28.492Z,6.67
2019-02-16T07:31:55.050Z,7.23
2019-02-16T07:34:21.631Z,7.70
2019-02-16T07:36:48.253Z,6.93
2019-02-16T07:39:14.546Z,7.17
2019-02-16T07:41:41.277Z,7.80
2019-02-16T07:44:12.419Z,6.97
2019-02-16T07:46:40.726Z,7.17
2019-02-16T07:49:11.740Z,6.70
2019-02-16T07:51:42.671Z,7.50
2019-02-16T07:54:23.141Z,7.70
2019-02-16T07:56:51.537Z,6.23
2019-02-16T07:59:19.840Z,7.50
2019-02-16T08:01:48.111Z,6.90
2019-02-16T08:04:22.175Z,7.00
2019-02-16T08:07:02.245Z,7.80
2019-02-16T08:09:42.566Z,7.03
2019-02-16T08:12:19.717Z,7.80
2019-02-16T08:14:48.296Z,7.93
2019-02-16T08:17:25.558Z,7.53
2019-02-16T08:20:04.374Z,6.77
2019-02-16T08:22:32.906Z,6.37
2019-02-16T08:25:13.004Z,8.13
2019-02-16T08:27:47.306Z,7.43
2019-02-16T08:30:30.669Z,8.13
2019-02-16T08:32:58.863Z,7.20
2019-02-16T08:35:31.455Z,7.57
2019-02-16T08:38:02.529Z,7.17
2019-02-16T08:40:42.594Z,6.47
2019-02-16T08:43:25.951Z,6.37
2019-02-16T08:45:57.254Z,7.73
2019-02-16T08:48:25.498Z,7.77
2019-02-16T08:50:53.909Z,7.83
2019-02-16T08:53:22.177Z,6.53
2019-02-16T08:56:02.451Z,7.03
2019-02-16T08:58:39.918Z,7.13
2019-02-16T09:01:08.403Z,7.77
2019-02-16T09:03:36.855Z,6.70
2019-02-16T09:06:14.098Z,7.27
2019-02-16T09:08:48.575Z,7.10
2019-02-16T09:11:31.656Z,6.63
2019-02-16T09:14:02.589Z,6.43
2019-02-16T09:16:33.519Z,7.10
2019-02-16T09:19:18.272Z,7.00
2019-02-16T09:21:46.709Z,7.30
2019-02-16T09:24:27.044Z,7.00
2019-02-16T09:26:55.245Z,7.10
2019-02-16T09:29:32.298Z,7.10
2019-02-16T09:32:06.786Z,6.97
2019-02-16T09:34:35.072Z,7.27
2019-02-16T09:37:08.994Z,6.73
2019-02-16T09:39:39.925Z,7.87
2019-02-16T09:42:08.193Z,6.57
2019-02-16T09:44:36.493Z,6.63
2019-02-16T09:47:10.571Z,7.20
2019-02-16T09:49:44.721Z,7.13
2019-02-16T09:52:13.061Z,7.20
2019-02-16T09:54:50.217Z,12.30
2019-02-16T09:57:34.870Z,6.27
2019-02-16T10:00:08.818Z,5.47
2019-02-16T10:02:40.001Z,8.43
2019-02-16T10:05:20.253Z,7.00
2019-02-16T10:07:48.733Z,7.30
2019-02-16T10:10:19.974Z,6.37
2019-02-16T10:12:57.005Z,6.40
2019-02-16T10:15:25.515Z,7.00
2019-02-16T10:17:53.983Z,5.80
2019-02-16T10:20:22.309Z,5.90
2019-02-16T10:23:07.102Z,6.00
2019-02-16T10:25:35.602Z,6.60
2019-02-16T10:28:06.822Z,6.20
2019-02-16T10:30:41.477Z,6.07
2019-02-16T10:33:15.605Z,7.57
2019-02-16T10:35:49.254Z,6.10
2019-02-16T10:38:17.684Z,6.83
2019-02-16T10:40:49.237Z,6.93
2019-02-16T10:43:37.357Z,6.10
2019-02-16T10:46:06.456Z,6.47
2019-02-16T10:48:38.011Z,6.80
2019-02-16T10:51:06.464Z,6.03
2019-02-16T10:53:51.511Z,6.37
2019-02-16T10:56:33.034Z,6.70
2019-02-16T10:59:18.797Z,5.53
2019-02-16T11:01:53.095Z,5.70
2019-02-16T11:04:22.581Z,7.67
2019-02-16T11:06:51.015Z,6.93
2019-02-16T11:09:22.303Z,6.53
2019-02-16T11:11:59.717Z,6.10
2019-02-16T11:14:41.023Z,7.10
2019-02-16T11:17:09.678Z,7.53
2019-02-16T11:19:41.374Z,7.03
2019-02-16T11:22:13.845Z,6.70
2019-02-16T11:24:46.033Z,7.97
2019-02-16T11:27:20.730Z,8.37
2019-02-16T11:30:05.718Z,7.40
2019-02-16T11:32:34.292Z,6.77
2019-02-16T11:35:11.525Z,6.90
2019-02-16T11:37:41.299Z,7.73
2019-02-16T11:40:09.715Z,7.90
2019-02-16T11:42:43.930Z,7.80
2019-02-16T11:45:28.695Z,7.63
2019-02-16T11:48:02.732Z,7.80
2019-02-16T11:50:47.806Z,7.80
2019-02-16T11:53:18.754Z,7.23
2019-02-16T11:56:03.809Z,8.53
2019-02-16T11:58:34.969Z,8.43
2019-02-16T12:01:03.617Z,7.63
2019-02-16T12:03:31.940Z,7.53
2019-02-16T12:06:01.659Z,9.43
2019-02-16T12:08:32.816Z,8.87
2019-02-16T12:11:03.811Z,8.33
2019-02-16T12:13:41.266Z,9.53
2019-02-16T12:16:15.518Z,9.50
2019-02-16T12:18:43.979Z,9.13
2019-02-16T12:21:15.206Z,8.30
2019-02-16T12:23:51.338Z,8.47
2019-02-16T12:26:22.533Z,9.40
2019-02-16T12:29:00.140Z,8.00
2019-02-16T12:31:28.577Z,8.77
2019-02-16T12:34:02.631Z,8.93
2019-02-16T12:36:33.715Z,9.23
2019-02-16T12:39:18.376Z,9.03
2019-02-16T12:41:53.290Z,8.53
2019-02-16T12:44:24.437Z,8.73
2019-02-16T12:46:55.594Z,9.40
2019-02-16T12:49:32.762Z,9.23
2019-02-16T12:52:07.073Z,8.63
2019-02-16T12:54:50.256Z,9.33
2019-02-16T12:57:21.172Z,10.37
2019-02-16T12:59:49.622Z,9.27
2019-02-16T13:02:20.582Z,9.77
2019-02-16T13:04:48.928Z,10.23
2019-02-16T13:07:17.244Z,9.53
2019-02-16T13:09:48.340Z,9.77
2019-02-16T13:12:22.390Z,10.30
2019-02-16T13:14:59.558Z,8.53
2019-02-16T13:17:33.574Z,11.17
2019-02-16T13:20:01.814Z,9.53
2019-02-16T13:22:48.270Z,11.43
2019-02-16T13:25:24.387Z,10.30
2019-02-16T13:28:06.102Z,10.77
2019-02-16T13:30:37.179Z,10.93
2019-02-16T13:33:11.182Z,11.67
2019-02-16T13:35:45.335Z,10.23
2019-02-16T13:38:16.894Z,10.77
2019-02-16T13:40:45.362Z,10.87
2019-02-16T13:43:16.514Z,9.30
2019-02-16T13:45:53.567Z,11.30
2019-02-16T13:48:21.947Z,9.87
2019-02-16T13:50:50.402Z,10.80
2019-02-16T13:53:30.480Z,10.07
2019-02-16T13:56:04.812Z,10.67
2019-02-16T13:58:33.232Z,10.00
2019-02-16T14:01:01.703Z,12.93
2019-02-16T14:03:30.197Z,11.40
2019-02-16T14:06:14.883Z,9.53
2019-02-16T14:08:51.875Z,9.20
2019-02-16T14:11:23.027Z,10.77
2019-02-16T14:13:57.218Z,10.30
2019-02-16T14:16:25.670Z,9.40
2019-02-16T14:18:52.406Z,12.30
2019-02-16T14:21:18.776Z,9.03
2019-02-16T14:23:45.066Z,9.60
2019-02-16T14:26:11.671Z,9.93
2019-02-16T14:28:38.065Z,9.93
2019-02-16T14:31:04.741Z,8.60
2019-02-16T14:33:31.358Z,9.30
2019-02-16T14:35:57.818Z,9.27
2019-02-16T14:38:26.190Z,9.27
2019-02-16T14:40:52.896Z,9.13
2019-02-16T14:43:19.358Z,9.10
2019-02-16T14:45:46.060Z,9.90
2019-02-16T14:48:12.540Z,9.60
2019-02-16T14:50:38.949Z,10.57
2019-02-16T14:53:05.425Z,10.43
2019-02-16T14:55:32.179Z,8.00
2019-02-16T14:57:58.814Z,9.83
2019-02-16T15:00:25.378Z,11.33
2019-02-16T15:02:52.113Z,9.77
2019-02-16T15:05:18.548Z,8.80
2019-02-16T15:07:44.934Z,9.80
2019-02-16T15:10:12.866Z,9.47
2019-02-16T15:12:39.461Z,7.73
2019-02-16T15:15:07.662Z,8.33
2019-02-16T15:17:34.303Z,7.53
2019-02-16T15:20:00.861Z,7.50
2019-02-16T15:22:27.269Z,8.23
2019-02-16T15:24:53.650Z,8.93
2019-02-16T15:27:20.354Z,8.83
2019-02-16T15:29:46.744Z,9.10
2019-02-16T15:32:13.255Z,8.27
2019-02-16T15:34:39.772Z,9.10
2019-02-16T15:37:06.210Z,10.07
2019-02-16T15:39:32.848Z,8.80
2019-02-16T15:41:59.492Z,8.20
2019-02-16T15:44:25.958Z,9.33
2019-02-16T15:46:52.545Z,8.27
2019-02-16T15:49:19.202Z,8.47
2019-02-16T15:51:45.620Z,9.13
2019-02-16T15:54:12.451Z,8.73
2019-02-16T15:56:40.923Z,11.30
2019-02-16T15:59:09.441Z,12.17
2019-02-16T16:01:35.726Z,15.40
2019-02-16T16:04:02.220Z,13.53
2019-02-16T16:06:28.728Z,13.90
2019-02-16T16:08:59.103Z,16.03
2019-02-16T16:11:27.204Z,16.30
2019-02-16T16:14:07.428Z,16.70
2019-02-16T16:16:38.333Z,18.13
2019-02-16T16:19:21.494Z,18.60
2019-02-16T16:21:58.822Z,18.53
2019-02-16T16:24:27.176Z,18.70
2019-02-16T16:27:07.114Z,19.20
2019-02-16T16:29:51.870Z,18.10
2019-02-16T16:32:38.124Z,21.60
2019-02-16T16:35:09.800Z,19.63
2019-02-16T16:37:43.970Z,19.77
2019-02-16T16:40:14.373Z,18.70
2019-02-16T16:42:45.439Z,21.03
2019-02-16T16:45:25.539Z,19.83
2019-02-16T16:48:05.730Z,20.23
2019-02-16T16:50:50.602Z,20.30
2019-02-16T16:53:18.891Z,21.00
2019-02-16T16:55:47.214Z,20.43
2019-02-16T16:58:15.603Z,20.27
2019-02-16T17:01:00.417Z,18.37
2019-02-16T17:03:33.363Z,20.33
2019-02-16T17:06:01.804Z,20.00
2019-02-16T17:08:45.152Z,21.70
2019-02-16T17:11:22.133Z,20.77
2019-02-16T17:14:02.513Z,19.83
2019-02-16T17:16:42.633Z,21.40
2019-02-16T17:19:10.948Z,19.93
2019-02-16T17:21:51.332Z,22.03
2019-02-16T17:24:34.557Z,20.90
2019-02-16T17:27:02.845Z,22.40
2019-02-16T17:29:33.734Z,22.27
2019-02-16T17:32:02.210Z,20.70
2019-02-16T17:34:33.436Z,21.30
2019-02-16T17:37:04.355Z,20.17
2019-02-16T17:39:32.740Z,21.60
2019-02-16T17:42:10.129Z,21.47
2019-02-16T17:44:44.531Z,21.33
2019-02-16T17:47:13.009Z,22.03
2019-02-16T17:49:52.993Z,20.87
2019-02-16T17:52:21.445Z,23.00
2019-02-16T17:54:52.358Z,20.57
2019-02-16T17:57:35.390Z,20.90
2019-02-16T18:00:07.698Z,22.47
2019-02-16T18:02:42.036Z,22.93
2019-02-16T18:05:13.235Z,21.20
2019-02-16T18:07:44.674Z,20.83
2019-02-16T18:10:13.058Z,22.23
2019-02-16T18:12:47.200Z,21.93
2019-02-16T18:15:15.584Z,21.47
2019-02-16T18:17:43.986Z,23.67
2019-02-16T18:20:27.246Z,23.33
2019-02-16T18:23:11.889Z,22.10
2019-02-16T18:25:40.262Z,22.23
2019-02-16T18:28:14.288Z,20.27
2019-02-16T18:30:42.674Z,20.90
2019-02-16T18:33:25.751Z,21.93
2019-02-16T18:36:06.076Z,21.93
2019-02-16T18:38:40.325Z,22.43
2019-02-16T18:41:23.607Z,21.17
2019-02-16T18:44:03.648Z,20.50
2019-02-16T18:46:34.834Z,22.37
2019-02-16T18:49:03.153Z,22.20
2019-02-16T18:51:43.450Z,21.17
2019-02-16T18:54:11.891Z,21.90
2019-02-16T18:56:40.218Z,20.83
2019-02-16T18:59:08.598Z,20.13
2019-02-16T19:01:40.021Z,22.87
2019-02-16T19:04:08.462Z,20.50
2019-02-16T19:06:48.824Z,21.37
2019-02-16T19:09:19.782Z,20.93
2019-02-16T19:11:59.760Z,22.37
2019-02-16T19:14:28.021Z,21.97
2019-02-16T19:17:11.080Z,23.07
2019-02-16T19:19:39.475Z,21.10
2019-02-16T19:22:07.903Z,21.13
2019-02-16T19:24:42.006Z,20.60
2019-02-16T19:27:16.751Z,22.73
2019-02-16T19:29:46.245Z,21.60
2019-02-16T19:32:14.784Z,20.83
2019-02-16T19:34:45.960Z,22.00
2019-02-16T19:37:17.117Z,21.47
2019-02-16T19:39:45.510Z,21.47
2019-02-16T19:42:16.429Z,21.13
2019-02-16T19:44:44.737Z,21.07
2019-02-16T19:47:13.059Z,23.40
2019-02-16T19:49:59.097Z,20.67
2019-02-16T19:52:30.318Z,21.60
2019-02-16T19:55:15.139Z,22.17
2019-02-16T19:57:43.707Z,19.53
2019-02-16T20:00:12.790Z,21.07
2019-02-16T20:02:57.710Z,20.97
2019-02-16T20:05:26.081Z,20.93
2019-02-16T20:07:57.426Z,22.07
2019-02-16T20:10:42.386Z,20.77
2019-02-16T20:13:10.699Z,21.10
2019-02-16T20:15:44.660Z,21.40
2019-02-16T20:18:16.108Z,21.13
2019-02-16T20:20:48.814Z,21.47
2019-02-16T20:23:23.079Z,19.70
2019-02-16T20:25:51.525Z,21.07
2019-02-16T20:28:22.703Z,21.80
2019-02-16T20:30:53.965Z,20.30
2019-02-16T20:33:31.041Z,20.77
2019-02-16T20:36:05.050Z,20.30
2019-02-16T20:38:35.906Z,20.73
2019-02-16T20:41:15.860Z,21.07
2019-02-16T20:43:44.215Z,22.03
2019-02-16T20:46:30.686Z,20.33
2019-02-16T20:48:59.019Z,20.37
2019-02-16T20:51:27.686Z,20.73
2019-02-16T20:54:02.199Z,20.07
2019-02-16T20:56:33.086Z,20.90
2019-02-16T20:59:04.142Z,20.00
2019-02-16T21:01:38.230Z,19.20
2019-02-16T21:04:06.558Z,21.80
2019-02-16T21:06:51.144Z,21.47
2019-02-16T21:09:35.675Z,22.07
2019-02-16T21:12:16.141Z,18.97
2019-02-16T21:14:44.534Z,21.50
2019-02-16T21:17:29.457Z,17.43
2019-02-16T21:19:57.653Z,19.07
2019-02-16T21:22:34.961Z,20.10
2019-02-16T21:25:03.550Z,20.00
2019-02-16T21:27:40.606Z,20.70
2019-02-16T21:30:16.425Z,20.77
2019-02-16T21:32:50.403Z,19.27
2019-02-16T21:35:27.642Z,18.60
2019-02-16T21:37:58.648Z,17.90
2019-02-16T21:40:27.045Z,17.80
2019-02-16T21:43:07.470Z,19.30
2019-02-16T21:45:52.408Z,19.03
2019-02-16T21:48:38.525Z,20.20
2019-02-16T21:51:21.791Z,19.33
2019-02-16T21:54:02.096Z,18.00
2019-02-16T21:56:47.089Z,18.17
2019-02-16T21:59:21.008Z,18.40
2019-02-16T22:01:52.194Z,18.90
2019-02-16T22:04:20.537Z,18.70
2019-02-16T22:06:51.426Z,19.30
2019-02-16T22:09:28.689Z,18.40
2019-02-16T22:12:13.481Z,18.50
2019-02-16T22:14:40.055Z,19.00
2019-02-16T22:17:06.626Z,19.00
2019-02-16T22:19:33.091Z,19.87
2019-02-16T22:21:59.548Z,18.97
2019-02-16T22:24:25.952Z,19.87
2019-02-16T22:26:52.404Z,19.33
2019-02-16T22:29:18.773Z,18.53
2019-02-16T22:31:45.139Z,19.47
2019-02-16T22:34:11.521Z,18.37
2019-02-16T22:36:37.917Z,18.50
2019-02-16T22:39:04.955Z,18.07
2019-02-16T22:41:31.217Z,16.93
2019-02-16T22:43:57.600Z,17.63
2019-02-16T22:46:24.092Z,17.93
2019-02-16T22:48:52.529Z,19.10
2019-02-16T22:51:19.930Z,16.60
2019-02-16T22:53:46.734Z,17.00
2019-02-16T22:56:13.213Z,17.67
2019-02-16T22:58:39.809Z,18.23
2019-02-16T23:01:06.804Z,18.50
2019-02-16T23:03:33.192Z,18.30
2019-02-16T23:05:59.638Z,18.83
2019-02-16T23:08:26.270Z,18.40
2019-02-16T23:10:52.849Z,18.57
2019-02-16T23:13:19.450Z,17.00
2019-02-16T23:15:45.977Z,17.40
2019-02-16T23:18:12.624Z,16.33
2019-02-16T23:20:41.005Z,16.20
2019-02-16T23:23:07.490Z,15.97
2019-02-16T23:25:33.842Z,15.33
2019-02-16T23:28:00.265Z,17.77
2019-02-16T23:30:26.879Z,17.00
2019-02-16T23:32:53.374Z,16.70
2019-02-16T23:35:19.944Z,15.93
2019-02-16T23:37:46.471Z,16.53
2019-02-16T23:40:12.859Z,16.10
2019-02-16T23:42:39.281Z,16.50
2019-02-16T23:45:08.261Z,15.67
2019-02-16T23:47:34.837Z,16.40
2019-02-16T23:50:01.326Z,15.80
2019-02-16T23:52:27.779Z,15.83
2019-02-16T23:54:54.214Z,16.27
2019-02-16T23:57:20.696Z,15.93
2019-02-16T23:59:47.180Z,16.97
